Time;durP1;ratioP1;P1;durP2;ratioP2;P2;SDS_P1;SDS_P2;PMS_P1;PMS_P2;Temp;Humidity;BMP_temperature;BMP_pressure;BME280_temperature;BME280_humidity;BME280_pressure;Samples;Min_cycle;Max_cycle;Signal;HPM_P1;HPM_P2
2024/01/07 00:01:10;;;;;;;27.00;14.63;;;5.20;99.90;;;;;;4966987;28;20444;-68
2024/01/07 00:03:42;;;;;;;23.50;11.73;;;5.20;99.90;;;;;;4968252;28;20575;-68
2024/01/07 00:06:11;;;;;;;26.13;14.53;;;5.20;99.90;;;;;;4966508;28;20578;-69
2024/01/07 00:08:39;;;;;;;29.70;13.77;;;5.20;99.90;;;;;;4966686;28;20525;-69
2024/01/07 00:11:07;;;;;;;26.73;13.10;;;5.20;99.90;;;;;;4964604;28;20515;-69
2024/01/07 00:13:35;;;;;;;25.50;14.30;;;5.20;99.90;;;;;;4964529;28;20479;-69
2024/01/07 00:16:04;;;;;;;26.37;13.10;;;5.10;99.90;;;;;;4967361;28;20480;-69
2024/01/07 00:18:32;;;;;;;28.40;14.33;;;5.10;99.90;;;;;;4957141;28;21347;-68
2024/01/07 00:21:01;;;;;;;28.53;14.07;;;5.10;99.90;;;;;;4946866;28;21239;-69
2024/01/07 00:23:29;;;;;;;28.93;14.87;;;5.10;99.90;;;;;;4952751;28;20464;-69
2024/01/07 00:25:57;;;;;;;26.73;14.07;;;5.20;99.90;;;;;;4967858;28;20970;-68
2024/01/07 00:28:25;;;;;;;28.60;14.83;;;5.20;99.90;;;;;;4974462;28;20508;-68
2024/01/07 00:30:53;;;;;;;28.23;12.90;;;5.20;99.90;;;;;;4966273;28;20454;-69
2024/01/07 00:33:21;;;;;;;26.93;13.93;;;5.20;99.90;;;;;;4964284;28;20523;-68
2024/01/07 00:35:50;;;;;;;24.33;13.67;;;5.20;99.90;;;;;;4967755;28;20450;-68
2024/01/07 00:38:19;;;;;;;27.20;13.87;;;5.20;99.90;;;;;;4966244;28;20438;-68
2024/01/07 00:40:47;;;;;;;25.73;12.60;;;5.20;99.90;;;;;;4966120;28;21309;-69
2024/01/07 00:43:15;;;;;;;25.73;12.77;;;5.20;99.90;;;;;;4964740;28;20552;-69
2024/01/07 00:45:43;;;;;;;24.83;12.93;;;5.20;99.90;;;;;;4966114;28;20453;-69
2024/01/07 00:48:11;;;;;;;22.57;12.10;;;5.20;99.90;;;;;;4958287;28;21161;-69
2024/01/07 00:50:39;;;;;;;29.07;14.37;;;5.20;99.90;;;;;;4966117;28;20445;-68
2024/01/07 00:53:07;;;;;;;27.80;13.13;;;5.30;99.90;;;;;;4966199;28;20535;-68
2024/01/07 00:55:36;;;;;;;27.40;13.60;;;5.20;99.90;;;;;;4965635;28;20447;-69
2024/01/07 00:58:04;;;;;;;26.63;14.10;;;5.20;99.90;;;;;;4966495;28;20451;-68
2024/01/07 01:00:32;;;;;;;24.07;13.53;;;5.20;99.90;;;;;;4964510;28;21031;-70
2024/01/07 01:03:00;;;;;;;26.87;13.13;;;5.20;99.90;;;;;;4961907;28;20776;-70
2024/01/07 01:05:28;;;;;;;24.90;12.70;;;5.20;99.90;;;;;;4967711;28;20544;-69
2024/01/07 01:07:56;;;;;;;22.70;13.20;;;5.10;99.90;;;;;;4965671;28;20493;-69
2024/01/07 01:10:25;;;;;;;29.23;15.40;;;5.20;99.90;;;;;;4959680;28;20450;-69
2024/01/07 01:12:54;;;;;;;23.57;12.43;;;5.20;99.90;;;;;;4964517;28;20637;-69
2024/01/07 01:15:23;;;;;;;29.47;15.47;;;5.20;99.90;;;;;;4962435;28;20928;-69
2024/01/07 01:17:51;;;;;;;24.90;13.50;;;5.20;99.90;;;;;;4949941;28;20457;-69
2024/01/07 01:20:19;;;;;;;28.63;13.40;;;5.20;99.90;;;;;;4960773;28;20489;-69
2024/01/07 01:22:46;;;;;;;23.97;13.27;;;5.20;99.90;;;;;;4964582;28;20579;-66
2024/01/07 01:25:15;;;;;;;26.20;13.70;;;5.20;99.90;;;;;;4957777;28;20444;-69
2024/01/07 01:27:44;;;;;;;26.90;13.20;;;5.20;99.90;;;;;;4961706;28;20485;-69
2024/01/07 01:30:14;;;;;;;29.23;14.47;;;5.20;99.90;;;;;;4965364;28;20444;-69
2024/01/07 01:32:42;;;;;;;27.33;14.67;;;5.20;99.90;;;;;;4964416;28;20980;-68
2024/01/07 01:35:10;;;;;;;28.73;14.90;;;5.20;99.90;;;;;;4958023;28;20468;-69
2024/01/07 01:37:38;;;;;;;27.57;14.67;;;5.20;99.90;;;;;;4965434;28;20847;-69
2024/01/07 01:40:07;;;;;;;25.07;13.40;;;5.20;99.90;;;;;;4965436;28;20535;-69
2024/01/07 01:42:35;;;;;;;27.77;14.23;;;5.20;99.90;;;;;;4965440;28;20461;-69
2024/01/07 01:45:04;;;;;;;32.30;15.00;;;5.20;99.90;;;;;;4964730;28;20526;-68
2024/01/07 01:47:33;;;;;;;28.90;15.07;;;5.20;99.90;;;;;;4967724;28;20530;-68
2024/01/07 01:50:02;;;;;;;30.60;15.53;;;5.20;99.90;;;;;;4977271;28;20440;-68
2024/01/07 01:52:31;;;;;;;28.87;14.73;;;5.20;99.90;;;;;;4972228;28;20471;-68
2024/01/07 01:55:00;;;;;;;31.73;14.60;;;5.20;99.90;;;;;;4967599;28;20451;-68
2024/01/07 01:57:34;;;;;;;34.40;17.53;;;5.20;99.90;;;;;;4966612;28;20953;-69
2024/01/07 02:00:04;;;;;;;32.40;15.63;;;5.20;99.90;;;;;;4967311;28;20804;-68
2024/01/07 02:02:34;;;;;;;32.63;15.87;;;5.10;99.90;;;;;;4967669;28;20473;-69
2024/01/07 02:05:03;;;;;;;31.03;17.13;;;5.10;99.90;;;;;;4965829;28;20461;-68
2024/01/07 02:07:32;;;;;;;30.90;15.27;;;5.10;99.90;;;;;;4969809;28;20865;-68
2024/01/07 02:10:00;;;;;;;29.23;15.80;;;5.10;99.90;;;;;;4971347;28;20548;-68
2024/01/07 02:12:29;;;;;;;30.57;16.03;;;5.10;99.90;;;;;;4971245;28;21013;-68
2024/01/07 02:14:57;;;;;;;31.67;16.63;;;5.10;99.90;;;;;;4971508;28;20460;-68
2024/01/07 02:17:26;;;;;;;33.53;16.53;;;5.20;99.90;;;;;;4971110;28;20527;-68
2024/01/07 02:19:55;;;;;;;30.03;16.27;;;5.20;99.90;;;;;;4970974;28;20453;-68
2024/01/07 02:22:23;;;;;;;31.23;15.10;;;5.10;99.90;;;;;;4969989;28;20842;-68
2024/01/07 02:24:52;;;;;;;31.53;16.40;;;5.20;99.90;;;;;;4971271;28;20463;-68
2024/01/07 02:27:20;;;;;;;32.30;17.40;;;5.20;99.90;;;;;;4971129;28;20486;-68
2024/01/07 02:29:48;;;;;;;31.40;16.80;;;5.30;99.90;;;;;;4970804;28;21139;-68
2024/01/07 02:32:16;;;;;;;31.70;16.60;;;5.20;99.90;;;;;;4970913;28;20508;-69
2024/01/07 02:34:45;;;;;;;30.33;15.77;;;5.30;99.90;;;;;;4970935;28;21015;-68
2024/01/07 02:37:13;;;;;;;34.33;17.30;;;5.30;99.90;;;;;;4969240;28;20445;-68
2024/01/07 02:39:41;;;;;;;34.20;19.30;;;5.30;99.90;;;;;;4970732;28;20444;-67
2024/01/07 02:42:13;;;;;;;36.90;17.80;;;5.30;99.90;;;;;;4970819;28;20530;-68
2024/01/07 02:44:41;;;;;;;32.80;16.70;;;5.30;99.90;;;;;;4970853;28;20843;-68
2024/01/07 02:47:09;;;;;;;35.73;18.10;;;5.30;99.90;;;;;;4971007;28;20542;-68
2024/01/07 02:49:37;;;;;;;33.43;16.93;;;5.30;99.90;;;;;;4970767;28;20451;-69
2024/01/07 02:52:06;;;;;;;31.43;16.73;;;5.20;99.90;;;;;;4976490;28;20525;-68
2024/01/07 02:54:34;;;;;;;35.50;16.77;;;5.20;99.90;;;;;;4970994;28;20472;-68
2024/01/07 02:57:02;;;;;;;30.17;16.90;;;5.20;99.90;;;;;;4970403;28;20448;-68
2024/01/07 02:59:31;;;;;;;33.23;18.00;;;5.10;99.90;;;;;;4965928;28;20462;-68
2024/01/07 03:01:59;;;;;;;32.37;18.63;;;5.10;99.90;;;;;;4963948;28;20810;-69
2024/01/07 03:04:27;;;;;;;37.80;18.33;;;5.10;99.90;;;;;;4978442;28;20443;-68
2024/01/07 03:06:55;;;;;;;34.60;17.50;;;5.10;99.90;;;;;;4988718;28;20449;-68
2024/01/07 03:09:23;;;;;;;39.87;23.80;;;5.20;99.90;;;;;;4977225;28;20513;-68
2024/01/07 03:11:51;;;;;;;32.90;18.57;;;5.10;99.90;;;;;;4969954;28;20456;-69
2024/01/07 03:14:21;;;;;;;31.80;16.70;;;5.10;99.90;;;;;;4970350;28;20562;-67
2024/01/07 03:16:50;;;;;;;37.83;18.33;;;5.10;99.90;;;;;;4962508;28;20477;-68
2024/01/07 03:19:18;;;;;;;32.20;15.97;;;5.10;99.90;;;;;;4974322;28;20496;-68
2024/01/07 03:21:46;;;;;;;31.17;17.80;;;5.10;99.90;;;;;;4989224;28;20450;-68
2024/01/07 03:24:14;;;;;;;31.40;16.00;;;5.10;99.90;;;;;;4970607;28;20518;-68
2024/01/07 03:26:42;;;;;;;35.77;18.70;;;5.10;99.90;;;;;;4970663;28;20454;-68
2024/01/07 03:29:10;;;;;;;32.90;17.53;;;5.10;99.90;;;;;;4970257;28;20523;-68
2024/01/07 03:31:38;;;;;;;31.63;16.57;;;5.10;99.90;;;;;;4968501;28;20859;-68
2024/01/07 03:34:08;;;;;;;32.20;16.23;;;5.10;99.90;;;;;;4970116;28;20472;-68
2024/01/07 03:36:36;;;;;;;32.17;17.53;;;5.00;99.90;;;;;;4970108;28;20475;-68
2024/01/07 03:39:04;;;;;;;30.87;15.23;;;5.00;99.90;;;;;;4969879;28;20494;-68
2024/01/07 03:41:32;;;;;;;30.17;14.40;;;4.90;99.90;;;;;;4974855;28;20453;-68
2024/01/07 03:44:00;;;;;;;31.70;16.33;;;4.90;99.90;;;;;;4987975;28;20570;-68
2024/01/07 03:46:28;;;;;;;32.97;17.27;;;4.90;99.90;;;;;;4969842;28;21202;-68
2024/01/07 03:48:56;;;;;;;29.70;16.13;;;4.80;99.90;;;;;;4967791;28;20471;-68
2024/01/07 03:51:25;;;;;;;31.33;16.20;;;4.70;99.90;;;;;;4969723;28;20532;-68
2024/01/07 03:53:54;;;;;;;30.70;16.20;;;4.60;99.90;;;;;;4969591;28;20471;-68
2024/01/07 03:56:21;;;;;;;31.70;15.90;;;4.60;99.90;;;;;;4970068;28;20578;-68
2024/01/07 03:58:49;;;;;;;29.13;14.87;;;4.50;99.90;;;;;;4969713;28;20440;-68
2024/01/07 04:01:18;;;;;;;29.23;15.50;;;4.50;99.90;;;;;;4969560;28;20903;-68
2024/01/07 04:03:46;;;;;;;30.07;16.07;;;4.50;99.90;;;;;;4966979;28;20471;-68
2024/01/07 04:06:14;;;;;;;36.77;16.60;;;4.50;99.90;;;;;;4969067;28;20439;-68
2024/01/07 04:08:44;;;;;;;32.03;15.70;;;4.50;99.90;;;;;;4969267;28;20538;-67
2024/01/07 04:11:12;;;;;;;33.00;15.47;;;4.50;99.90;;;;;;4969092;28;20463;-67
2024/01/07 04:13:40;;;;;;;36.37;16.03;;;4.40;99.90;;;;;;4969410;28;20476;-67
2024/01/07 04:16:19;;;;;;;30.27;16.40;;;4.40;99.90;;;;;;4969212;28;20462;-67
2024/01/07 04:18:48;;;;;;;30.80;15.50;;;4.50;99.90;;;;;;4969080;28;20925;-68
2024/01/07 04:21:21;;;;;;;26.33;14.43;;;4.50;99.90;;;;;;4967548;28;21040;-67
2024/01/07 04:23:50;;;;;;;32.60;14.77;;;4.50;99.90;;;;;;4969160;28;20474;-68
2024/01/07 04:26:18;;;;;;;28.17;13.63;;;4.60;99.90;;;;;;4968987;28;20511;-67
2024/01/07 04:28:46;;;;;;;33.87;16.63;;;4.60;99.90;;;;;;4976136;28;20481;-67
2024/01/07 04:31:14;;;;;;;26.20;13.67;;;4.60;99.90;;;;;;4977000;28;20447;-67
2024/01/07 04:33:42;;;;;;;31.37;14.97;;;4.60;99.90;;;;;;4968873;28;21201;-67
2024/01/07 04:36:10;;;;;;;26.50;13.60;;;4.60;99.90;;;;;;4967348;28;20448;-67
2024/01/07 04:38:38;;;;;;;29.10;13.80;;;4.50;99.90;;;;;;4968922;28;20454;-67
2024/01/07 04:41:07;;;;;;;31.17;13.47;;;4.50;99.90;;;;;;4968477;28;20452;-67
2024/01/07 04:43:36;;;;;;;27.97;14.67;;;4.50;99.90;;;;;;4968729;28;20906;-67
2024/01/07 04:46:05;;;;;;;28.03;12.90;;;4.50;99.90;;;;;;4968938;28;20452;-67
2024/01/07 04:48:33;;;;;;;28.60;14.47;;;4.40;99.90;;;;;;4968872;28;20483;-67
2024/01/07 04:51:01;;;;;;;25.47;12.50;;;4.50;99.90;;;;;;4968566;28;20478;-66
2024/01/07 04:53:29;;;;;;;25.47;12.33;;;4.50;99.90;;;;;;4963429;28;20562;-67
2024/01/07 04:55:57;;;;;;;27.33;12.13;;;4.40;99.90;;;;;;4968543;28;21009;-67
2024/01/07 04:58:26;;;;;;;22.60;11.27;;;4.40;99.90;;;;;;4968531;28;20453;-67
2024/01/07 05:00:54;;;;;;;26.13;13.00;;;4.40;99.90;;;;;;4968274;28;20796;-67
2024/01/07 05:03:22;;;;;;;28.80;11.40;;;4.40;99.90;;;;;;4968641;28;20560;-67
2024/01/07 05:05:50;;;;;;;26.27;12.10;;;4.40;99.90;;;;;;4968684;28;20458;-67
2024/01/07 05:08:18;;;;;;;26.83;11.93;;;4.40;99.90;;;;;;4968122;28;20451;-67
2024/01/07 05:10:46;;;;;;;25.60;11.37;;;4.40;99.90;;;;;;4968915;28;20573;-67
2024/01/07 05:13:14;;;;;;;22.60;10.83;;;4.40;99.90;;;;;;4968383;28;20487;-67
2024/01/07 05:15:43;;;;;;;27.37;11.37;;;4.50;99.90;;;;;;4965342;28;20455;-67
2024/01/07 05:18:11;;;;;;;28.77;11.57;;;4.40;99.90;;;;;;4986744;28;20488;-67
2024/01/07 05:20:40;;;;;;;24.40;11.10;;;4.50;99.90;;;;;;4973261;28;20483;-67
2024/01/07 05:23:08;;;;;;;27.33;11.73;;;4.40;99.90;;;;;;4968373;28;20479;-66
2024/01/07 05:25:36;;;;;;;25.37;11.30;;;4.40;99.90;;;;;;4962489;28;20483;-67
2024/01/07 05:28:04;;;;;;;27.70;11.13;;;4.40;99.90;;;;;;4965937;28;20505;-67
2024/01/07 05:30:32;;;;;;;22.40;10.70;;;4.50;99.90;;;;;;4967921;28;20522;-67
2024/01/07 05:33:02;;;;;;;24.17;11.23;;;4.40;99.90;;;;;;4967863;28;20463;-67
2024/01/07 05:35:30;;;;;;;23.13;10.60;;;4.40;99.90;;;;;;4968049;28;20451;-67
2024/01/07 05:37:58;;;;;;;23.37;10.73;;;4.40;99.90;;;;;;4966292;28;20439;-67
2024/01/07 05:40:26;;;;;;;21.43;10.97;;;4.40;99.90;;;;;;4967191;28;20534;-69
2024/01/07 05:42:53;;;;;;;21.10;10.97;;;4.40;99.90;;;;;;4966652;28;20467;-69
2024/01/07 05:45:21;;;;;;;21.60;10.20;;;4.40;99.90;;;;;;4968040;28;20809;-68
2024/01/07 05:47:49;;;;;;;25.00;10.93;;;4.40;99.90;;;;;;4967749;28;21027;-67
2024/01/07 05:50:20;;;;;;;23.10;11.13;;;4.40;99.90;;;;;;4967841;28;20491;-68
2024/01/07 05:52:48;;;;;;;23.83;11.30;;;4.50;99.90;;;;;;4967427;28;20467;-67
2024/01/07 05:55:16;;;;;;;23.63;11.40;;;4.50;99.90;;;;;;4967731;28;20505;-69
2024/01/07 05:57:44;;;;;;;23.17;11.40;;;4.50;99.90;;;;;;4967692;28;20447;-69
2024/01/07 06:00:13;;;;;;;22.10;10.47;;;4.50;99.90;;;;;;4967427;28;20478;-68
2024/01/07 06:02:41;;;;;;;23.90;11.23;;;4.40;99.90;;;;;;4967892;28;20538;-68
2024/01/07 06:05:09;;;;;;;24.63;11.77;;;4.50;99.90;;;;;;4967447;28;20964;-68
2024/01/07 06:07:39;;;;;;;24.33;11.50;;;4.50;99.90;;;;;;4965911;28;20448;-69
2024/01/07 06:10:07;;;;;;;22.53;10.90;;;4.50;99.90;;;;;;4959936;28;20574;-69
2024/01/07 06:12:35;;;;;;;20.63;10.80;;;4.50;99.90;;;;;;4967416;28;20471;-69
2024/01/07 06:15:05;;;;;;;23.03;10.30;;;4.50;99.90;;;;;;4967437;28;20482;-68
2024/01/07 06:17:33;;;;;;;20.30;10.30;;;4.50;99.90;;;;;;4967608;28;20833;-68
2024/01/07 06:20:01;;;;;;;19.50;10.13;;;4.50;99.90;;;;;;4967317;28;20595;-69
2024/01/07 06:22:29;;;;;;;18.83;9.80;;;4.50;99.90;;;;;;4967393;28;20522;-68
2024/01/07 06:24:58;;;;;;;22.83;10.53;;;4.50;99.90;;;;;;4966508;28;21011;-68
2024/01/07 06:27:27;;;;;;;24.10;11.30;;;4.50;99.90;;;;;;4967490;28;20863;-69
2024/01/07 06:29:55;;;;;;;25.63;12.77;;;4.50;99.90;;;;;;4967598;28;20479;-68
2024/01/07 06:32:24;;;;;;;19.70;10.50;;;4.50;99.90;;;;;;4967412;28;20471;-69
2024/01/07 06:34:53;;;;;;;23.30;12.90;;;4.50;99.90;;;;;;4967643;28;20534;-69
2024/01/07 06:37:21;;;;;;;18.43;10.27;;;4.50;99.90;;;;;;4964230;28;20464;-68
2024/01/07 06:39:48;;;;;;;20.77;11.10;;;4.50;99.90;;;;;;4962762;28;20451;-69
2024/01/07 06:42:17;;;;;;;22.43;12.33;;;4.60;99.90;;;;;;4959861;28;21205;-69
2024/01/07 06:44:45;;;;;;;22.30;12.53;;;4.50;99.90;;;;;;4967578;28;20487;-68
2024/01/07 06:47:13;;;;;;;20.50;11.13;;;4.50;99.90;;;;;;4967161;28;20475;-68
2024/01/07 06:49:41;;;;;;;20.20;10.17;;;4.60;99.90;;;;;;4967076;28;20506;-68
2024/01/07 06:52:09;;;;;;;17.87;9.97;;;4.60;99.90;;;;;;4967190;28;21004;-69
2024/01/07 06:54:39;;;;;;;22.00;10.90;;;4.60;99.90;;;;;;4969554;28;20893;-69
2024/01/07 06:57:07;;;;;;;16.23;9.10;;;4.60;99.90;;;;;;4978363;28;20443;-69
2024/01/07 06:59:36;;;;;;;17.33;9.37;;;4.60;99.90;;;;;;4970682;28;20454;-67
2024/01/07 07:02:04;;;;;;;16.00;10.40;;;4.60;99.90;;;;;;4967291;28;20447;-68
2024/01/07 07:04:32;;;;;;;18.90;9.17;;;4.60;99.90;;;;;;4976110;28;20529;-67
2024/01/07 07:07:01;;;;;;;19.47;9.87;;;4.50;99.90;;;;;;4977540;28;20447;-68
2024/01/07 07:09:29;;;;;;;17.03;8.83;;;4.60;99.90;;;;;;4978381;28;20463;-67
2024/01/07 07:11:57;;;;;;;15.90;8.50;;;4.50;99.90;;;;;;4974933;28;20522;-67
2024/01/07 07:14:25;;;;;;;17.70;8.60;;;4.50;99.90;;;;;;4977914;28;20455;-67
2024/01/07 07:16:54;;;;;;;17.13;8.90;;;4.50;99.90;;;;;;4977204;28;20511;-67
2024/01/07 07:19:22;;;;;;;17.40;8.33;;;4.40;99.90;;;;;;4977500;28;20475;-68
2024/01/07 07:21:50;;;;;;;14.60;7.37;;;4.40;99.90;;;;;;4977178;28;21191;-68
2024/01/07 07:24:18;;;;;;;14.90;7.20;;;4.40;99.90;;;;;;4973167;28;20472;-67
2024/01/07 07:26:46;;;;;;;14.77;6.40;;;4.30;99.90;;;;;;4970453;28;20444;-67
2024/01/07 07:29:14;;;;;;;15.80;6.67;;;4.30;99.90;;;;;;4969258;28;20455;-67
2024/01/07 07:31:42;;;;;;;16.30;7.53;;;4.40;99.90;;;;;;4987712;28;20500;-67
2024/01/07 07:34:12;;;;;;;14.70;7.00;;;4.30;99.90;;;;;;4970535;28;20467;-67
2024/01/07 07:36:41;;;;;;;14.30;6.93;;;4.30;99.90;;;;;;4966999;28;20469;-67
2024/01/07 07:39:09;;;;;;;14.23;6.37;;;4.30;99.90;;;;;;4987786;28;20494;-66
2024/01/07 07:41:37;;;;;;;14.73;6.80;;;4.30;99.90;;;;;;4974663;28;20534;-67
2024/01/07 07:44:05;;;;;;;15.67;6.90;;;4.30;99.90;;;;;;4969057;28;20561;-67
2024/01/07 07:46:33;;;;;;;14.63;7.20;;;4.20;99.90;;;;;;4963497;28;21226;-67
2024/01/07 07:49:02;;;;;;;13.37;6.70;;;4.20;99.90;;;;;;4987399;28;20550;-67
2024/01/07 07:51:32;;;;;;;15.40;7.40;;;4.20;99.90;;;;;;4975810;28;20499;-68
2024/01/07 07:54:00;;;;;;;15.67;6.93;;;4.20;99.90;;;;;;4968035;28;20949;-67
2024/01/07 07:56:28;;;;;;;12.90;6.53;;;4.20;99.90;;;;;;4961313;28;20455;-67
2024/01/07 07:58:56;;;;;;;14.70;6.63;;;4.20;99.90;;;;;;4960672;28;20460;-67
2024/01/07 08:01:24;;;;;;;15.70;7.60;;;4.20;99.90;;;;;;4961436;28;20961;-67
2024/01/07 08:03:53;;;;;;;10.83;5.03;;;4.20;99.90;;;;;;4965788;28;20455;-68
2024/01/07 08:06:21;;;;;;;13.20;5.77;;;4.20;99.90;;;;;;4961753;28;20483;-67
2024/01/07 08:08:51;;;;;;;12.50;5.40;;;4.20;99.90;;;;;;4968949;28;20455;-67
2024/01/07 08:11:19;;;;;;;11.90;5.50;;;4.20;99.90;;;;;;4967914;28;21121;-67
2024/01/07 08:13:47;;;;;;;12.30;5.23;;;4.10;99.90;;;;;;4969582;28;20559;-68
2024/01/07 08:16:15;;;;;;;13.73;6.77;;;4.10;99.90;;;;;;4969546;28;20892;-66
2024/01/07 08:18:44;;;;;;;12.80;5.47;;;4.10;99.90;;;;;;4962425;28;20456;-67
2024/01/07 08:21:12;;;;;;;13.80;5.67;;;4.10;99.90;;;;;;4959525;28;20452;-67
2024/01/07 08:23:40;;;;;;;10.97;4.90;;;4.10;99.90;;;;;;4974370;28;20848;-67
2024/01/07 08:26:09;;;;;;;16.37;5.27;;;4.10;99.90;;;;;;4969380;28;20463;-68
2024/01/07 08:28:37;;;;;;;13.57;5.80;;;4.10;99.90;;;;;;4978475;28;20447;-66
2024/01/07 08:31:07;;;;;;;12.93;4.63;;;4.00;99.90;;;;;;4972966;28;20479;-66
2024/01/07 08:33:35;;;;;;;15.37;6.13;;;4.00;99.90;;;;;;4969163;28;20475;-67
2024/01/07 08:36:04;;;;;;;14.57;6.37;;;4.00;99.90;;;;;;4966170;28;20446;-67
2024/01/07 08:38:32;;;;;;;14.33;6.43;;;3.90;99.90;;;;;;4967112;28;20455;-67
2024/01/07 08:41:00;;;;;;;13.70;6.27;;;4.00;99.90;;;;;;4968540;28;20451;-66
2024/01/07 08:43:29;;;;;;;14.33;6.47;;;4.00;99.90;;;;;;4966751;28;20506;-68
2024/01/07 08:45:57;;;;;;;14.57;5.80;;;3.90;99.90;;;;;;4975223;28;20447;-68
2024/01/07 08:48:25;;;;;;;12.43;5.23;;;3.90;99.90;;;;;;4968192;28;20933;-67
2024/01/07 08:50:53;;;;;;;12.40;5.70;;;3.90;99.90;;;;;;4968054;28;20493;-67
2024/01/07 08:53:22;;;;;;;10.87;4.00;;;3.90;99.90;;;;;;4967269;28;20587;-67
2024/01/07 08:55:50;;;;;;;11.97;5.03;;;3.90;99.90;;;;;;4972967;28;21174;-68
2024/01/07 08:58:18;;;;;;;12.13;4.77;;;4.00;99.90;;;;;;4968337;28;20542;-67
2024/01/07 09:00:47;;;;;;;11.20;3.83;;;4.00;99.90;;;;;;4973746;28;20757;-67
2024/01/07 09:03:15;;;;;;;11.60;4.03;;;4.00;99.90;;;;;;4968335;28;20517;-67
2024/01/07 09:05:43;;;;;;;11.47;3.50;;;4.00;99.90;;;;;;4967929;28;20210;-68
2024/01/07 09:08:14;;;;;;;10.40;4.70;;;4.00;99.90;;;;;;4966648;28;20541;-66
2024/01/07 09:10:42;;;;;;;10.17;3.07;;;4.00;99.90;;;;;;4967468;28;20490;-66
2024/01/07 09:13:10;;;;;;;8.93;3.07;;;4.00;99.90;;;;;;4967971;28;20562;-67
2024/01/07 09:15:38;;;;;;;8.50;2.80;;;4.00;99.90;;;;;;4968376;28;20443;-67
2024/01/07 09:18:08;;;;;;;9.27;3.17;;;4.00;99.90;;;;;;4970270;28;20452;-67
2024/01/07 09:20:36;;;;;;;8.97;3.00;;;4.00;99.90;;;;;;4968044;28;20444;-67
2024/01/07 09:23:04;;;;;;;8.73;2.93;;;4.10;99.90;;;;;;4967333;28;20477;-67
2024/01/07 09:25:32;;;;;;;10.40;3.20;;;4.00;99.90;;;;;;4966710;28;20448;-66
2024/01/07 09:28:00;;;;;;;9.70;3.17;;;4.10;99.90;;;;;;4974340;28;20929;-67
2024/01/07 09:30:28;;;;;;;9.90;2.87;;;4.10;99.90;;;;;;4969980;28;20218;-67
2024/01/07 09:32:56;;;;;;;10.33;3.63;;;4.10;99.90;;;;;;4969538;28;20597;-67
2024/01/07 09:35:26;;;;;;;11.43;3.20;;;4.20;99.90;;;;;;4972752;28;20454;-68
2024/01/07 09:37:54;;;;;;;9.23;3.00;;;4.30;99.90;;;;;;4974887;28;20446;-68
2024/01/07 09:40:22;;;;;;;9.30;3.43;;;4.30;99.90;;;;;;4976210;28;20463;-67
2024/01/07 09:42:51;;;;;;;11.00;4.10;;;4.20;99.90;;;;;;4966660;28;20474;-67
2024/01/07 09:45:22;;;;;;;10.10;3.77;;;4.10;99.90;;;;;;4967203;28;20451;-67
2024/01/07 09:47:50;;;;;;;9.80;3.80;;;4.10;99.90;;;;;;4967904;28;20486;-67
2024/01/07 09:50:18;;;;;;;10.73;4.03;;;4.00;99.90;;;;;;4979138;28;20462;-68
2024/01/07 09:52:49;;;;;;;11.75;5.28;;;4.00;99.90;;;;;;4972268;28;20485;-67
2024/01/07 09:55:23;;;;;;;11.32;4.82;;;3.90;99.90;;;;;;4970519;28;20627;-68
2024/01/07 09:57:51;;;;;;;11.63;4.30;;;3.80;99.90;;;;;;4968170;28;20682;-67
2024/01/07 10:00:19;;;;;;;10.97;4.57;;;3.90;99.90;;;;;;4969686;28;20452;-68
2024/01/07 10:02:47;;;;;;;11.90;4.73;;;3.90;99.90;;;;;;4969904;28;21040;-69
2024/01/07 10:05:15;;;;;;;9.07;3.20;;;3.90;99.90;;;;;;4968195;28;20447;-67
2024/01/07 10:07:42;;;;;;;10.20;3.97;;;3.80;99.90;;;;;;4967025;28;20200;-67
2024/01/07 10:10:17;;;;;;;10.17;3.57;;;3.70;99.90;;;;;;4967533;28;20454;-67
2024/01/07 10:12:46;;;;;;;11.82;4.38;;;3.70;99.90;;;;;;4965408;28;20529;-68
2024/01/07 10:15:14;;;;;;;11.00;4.57;;;3.60;99.90;;;;;;4967155;28;20212;-67
2024/01/07 10:17:43;;;;;;;10.13;3.87;;;3.60;99.90;;;;;;4961235;28;20455;-67
2024/01/07 10:20:12;;;;;;;10.70;4.10;;;3.60;99.90;;;;;;4966495;28;20452;-67
2024/01/07 10:22:41;;;;;;;10.75;4.13;;;3.70;99.90;;;;;;4968098;28;20867;-67
2024/01/07 10:25:09;;;;;;;10.53;4.23;;;3.70;99.90;;;;;;4977058;28;20202;-67
2024/01/07 10:27:38;;;;;;;13.13;4.67;;;3.70;99.90;;;;;;4970425;28;20448;-68
2024/01/07 10:30:07;;;;;;;10.85;5.00;;;3.70;99.90;;;;;;4971844;28;20450;-68
2024/01/07 10:32:36;;;;;;;14.60;5.67;;;3.60;99.90;;;;;;4977569;28;20234;-67
2024/01/07 10:35:08;;;;;;;13.20;5.40;;;3.60;99.90;;;;;;4968418;28;20503;-68
2024/01/07 10:37:36;;;;;;;12.03;4.90;;;3.60;99.90;;;;;;4978122;28;20913;-67
2024/01/07 10:40:05;;;;;;;11.80;4.60;;;3.60;99.90;;;;;;4966302;28;20513;-67
2024/01/07 10:42:34;;;;;;;10.33;4.53;;;3.60;99.90;;;;;;4971567;28;20819;-67
2024/01/07 10:45:04;;;;;;;11.30;4.47;;;3.70;99.90;;;;;;4980751;28;20448;-69
2024/01/07 10:47:32;;;;;;;16.00;5.87;;;3.80;99.90;;;;;;4981767;28;20928;-67
2024/01/07 10:50:02;;;;;;;11.45;4.78;;;3.70;99.90;;;;;;4975091;28;20434;-68
2024/01/07 10:52:33;;;;;;;12.67;5.50;;;3.70;99.90;;;;;;4970790;28;20235;-68
2024/01/07 10:55:09;;;;;;;12.47;4.77;;;3.80;99.90;;;;;;4971065;28;20926;-67
2024/01/07 10:57:43;;;;;;;11.20;4.83;;;3.80;99.90;;;;;;4963399;28;21392;-68
2024/01/07 11:00:18;;;;;;;12.17;4.27;;;3.80;99.90;;;;;;4970676;28;21221;-68
2024/01/07 11:03:05;;;;;;;11.80;4.50;;;3.70;99.90;;;;;;4970279;28;20461;-68
2024/01/07 11:05:40;;;;;;;11.40;4.90;;;3.80;99.90;;;;;;4970649;28;21170;-67
2024/01/07 11:08:16;;;;;;;10.70;3.90;;;3.80;99.90;;;;;;4970244;28;20447;-68
2024/01/07 11:10:49;;;;;;;11.60;4.90;;;3.70;99.90;;;;;;4970067;28;20447;-67
2024/01/07 11:13:33;;;;;;;10.13;4.10;;;3.70;99.90;;;;;;4968533;28;20527;-67
2024/01/07 11:16:03;;;;;;;10.70;3.97;;;3.60;99.90;;;;;;4966448;28;21123;-67
2024/01/07 11:18:33;;;;;;;10.65;4.05;;;3.60;99.90;;;;;;4965871;28;20311;-67
2024/01/07 11:21:03;;;;;;;10.60;4.40;;;3.60;99.90;;;;;;4969542;28;20639;-67
2024/01/07 11:23:32;;;;;;;10.20;3.53;;;3.60;99.90;;;;;;4969827;28;20459;-67
2024/01/07 11:26:01;;;;;;;12.70;4.70;;;3.60;99.90;;;;;;4970419;28;20447;-67
2024/01/07 11:28:50;;;;;;;11.80;4.30;;;3.60;99.90;;;;;;4969773;28;20599;-67
2024/01/07 11:31:21;;;;;;;11.87;4.67;;;3.60;99.90;;;;;;4968221;28;20469;-68
2024/01/07 11:33:51;;;;;;;11.90;4.47;;;3.60;99.90;;;;;;4963171;28;20493;-67
2024/01/07 11:36:19;;;;;;;11.27;4.40;;;3.50;99.90;;;;;;4969337;28;20514;-68
2024/01/07 11:38:50;;;;;;;11.40;3.90;;;3.40;99.90;;;;;;4969209;28;21030;-67
2024/01/07 11:41:22;;;;;;;10.35;4.25;;;3.30;99.90;;;;;;4969221;28;20644;-67
2024/01/07 11:43:55;;;;;;;13.02;4.78;;;3.20;99.90;;;;;;4969701;28;20682;-67
2024/01/07 11:46:25;;;;;;;10.20;3.50;;;3.10;99.90;;;;;;4969255;28;20232;-67
2024/01/07 11:48:57;;;;;;;10.68;4.00;;;3.10;99.90;;;;;;4969223;28;20214;-67
2024/01/07 11:51:27;;;;;;;10.85;4.78;;;3.10;99.90;;;;;;4968672;28;20204;-67
2024/01/07 11:53:55;;;;;;;11.70;5.50;;;3.10;99.90;;;;;;4967368;28;20239;-66
2024/01/07 11:56:24;;;;;;;11.02;4.95;;;3.10;99.90;;;;;;4969254;28;20206;-67
2024/01/07 11:58:53;;;;;;;11.38;5.00;;;3.10;99.90;;;;;;4969064;28;20504;-67
2024/01/07 12:01:21;;;;;;;12.30;4.97;;;3.20;99.90;;;;;;4968005;28;20211;-68
2024/01/07 12:03:50;;;;;;;12.98;5.63;;;3.20;99.90;;;;;;4967115;28;20580;-67
2024/01/07 12:06:21;;;;;;;13.63;6.25;;;3.10;99.90;;;;;;4968512;28;20696;-66
2024/01/07 12:08:49;;;;;;;13.10;5.95;;;3.10;99.90;;;;;;4965904;28;20308;-66
2024/01/07 12:11:18;;;;;;;13.07;5.30;;;3.20;99.90;;;;;;4968690;28;20656;-67
2024/01/07 12:13:46;;;;;;;11.63;5.63;;;3.30;99.90;;;;;;4968849;28;20235;-67
2024/01/07 12:16:15;;;;;;;15.67;6.10;;;3.20;99.90;;;;;;4968266;28;20313;-67
2024/01/07 12:18:43;;;;;;;12.20;5.87;;;3.20;99.90;;;;;;4968309;28;20497;-66
2024/01/07 12:21:12;;;;;;;12.60;5.95;;;3.20;99.90;;;;;;4961956;28;20471;-66
2024/01/07 12:23:40;;;;;;;13.20;4.53;;;3.10;99.90;;;;;;4968227;28;20227;-66
2024/01/07 12:26:13;;;;;;;11.50;5.20;;;3.10;99.90;;;;;;4966389;28;20862;-67
2024/01/07 12:28:41;;;;;;;14.52;6.85;;;3.00;99.90;;;;;;4968229;28;20499;-66
2024/01/07 12:31:09;;;;;;;13.80;6.13;;;3.00;99.90;;;;;;4965069;28;20673;-66
2024/01/07 12:33:39;;;;;;;12.38;5.60;;;2.90;99.90;;;;;;4968765;28;20242;-65
2024/01/07 12:36:08;;;;;;;12.85;5.13;;;2.90;99.90;;;;;;4968551;28;20218;-68
2024/01/07 12:38:39;;;;;;;14.95;6.30;;;2.80;99.90;;;;;;4968509;28;20220;-67
2024/01/07 12:41:07;;;;;;;12.75;5.60;;;2.80;99.90;;;;;;4958790;28;20639;-66
2024/01/07 12:43:35;;;;;;;13.77;6.15;;;2.90;99.90;;;;;;4968055;28;20255;-66
2024/01/07 12:46:05;;;;;;;13.55;6.93;;;2.90;99.90;;;;;;4968222;28;20214;-68
2024/01/07 12:48:34;;;;;;;13.48;6.40;;;2.90;99.90;;;;;;4966695;28;20218;-67